sensor_id;sensor_type;location;lat;lon;timestamp;temperature;humidity
48328;DHT22;34136;51.022;7.082;2023-12-22T05:01:54;5.80;1.00
48328;DHT22;34136;51.022;7.082;2023-12-22T05:04:40;5.90;1.00
48328;DHT22;34136;51.022;7.082;2023-12-22T05:07:26;6.10;1.00
48328;DHT22;34136;51.022;7.082;2023-12-22T05:10:15;6.10;1.00
48328;DHT22;34136;51.022;7.082;2023-12-22T05:13:01;6.10;1.00
48328;DHT22;34136;51.022;7.082;2023-12-22T05:15:47;6.10;1.00
48328;DHT22;34136;51.022;7.082;2023-12-22T05:18:33;6.10;1.00
48328;DHT22;34136;51.022;7.082;2023-12-22T05:21:20;6.20;1.00
48328;DHT22;34136;51.022;7.082;2023-12-22T05:24:06;6.30;1.00
48328;DHT22;34136;51.022;7.082;2023-12-22T05:26:53;6.40;1.00
48328;DHT22;34136;51.022;7.082;2023-12-22T05:29:38;6.50;1.00
48328;DHT22;34136;51.022;7.082;2023-12-22T05:32:25;6.50;1.00
48328;DHT22;34136;51.022;7.082;2023-12-22T05:35:41;6.60;1.00
48328;DHT22;34136;51.022;7.082;2023-12-22T05:38:28;6.70;1.00
48328;DHT22;34136;51.022;7.082;2023-12-22T05:41:19;6.70;1.00
48328;DHT22;34136;51.022;7.082;2023-12-22T05:44:05;6.80;1.00
48328;DHT22;34136;51.022;7.082;2023-12-22T05:46:51;6.90;1.00
48328;DHT22;34136;51.022;7.082;2023-12-22T05:49:40;7.00;1.00
48328;DHT22;34136;51.022;7.082;2023-12-22T05:52:26;7.00;1.00
48328;DHT22;34136;51.022;7.082;2023-12-22T05:55:12;7.10;1.00
48328;DHT22;34136;51.022;7.082;2023-12-22T05:57:58;7.20;1.00
48328;DHT22;34136;51.022;7.082;2023-12-22T06:00:45;7.20;1.00
48328;DHT22;34136;51.022;7.082;2023-12-22T06:03:31;7.30;1.00
48328;DHT22;34136;51.022;7.082;2023-12-22T06:06:17;7.30;1.00
48328;DHT22;34136;51.022;7.082;2023-12-22T06:09:06;7.30;1.00
48328;DHT22;34136;51.022;7.082;2023-12-22T06:11:53;7.40;1.00
48328;DHT22;34136;51.022;7.082;2023-12-22T06:15:05;7.40;1.00
48328;DHT22;34136;51.022;7.082;2023-12-22T06:17:51;7.40;1.00
48328;DHT22;34136;51.022;7.082;2023-12-22T06:20:38;7.50;1.00
48328;DHT22;34136;51.022;7.082;2023-12-22T06:23:24;7.50;1.00
48328;DHT22;34136;51.022;7.082;2023-12-22T06:26:13;7.50;1.00
48328;DHT22;34136;51.022;7.082;2023-12-22T06:29:00;7.60;1.00
48328;DHT22;34136;51.022;7.082;2023-12-22T06:31:50;7.60;1.00
48328;DHT22;34136;51.022;7.082;2023-12-22T06:34:36;7.60;1.00
48328;DHT22;34136;51.022;7.082;2023-12-22T06:37:22;7.60;1.00
48328;DHT22;34136;51.022;7.082;2023-12-22T06:40:09;7.60;1.00
48328;DHT22;34136;51.022;7.082;2023-12-22T06:42:55;7.60;1.00
48328;DHT22;34136;51.022;7.082;2023-12-22T06:45:41;7.60;1.00
48328;DHT22;34136;51.022;7.082;2023-12-22T06:48:27;7.70;1.00
48328;DHT22;34136;51.022;7.082;2023-12-22T06:51:24;7.70;1.00
48328;DHT22;34136;51.022;7.082;2023-12-22T06:54:11;7.70;1.00
48328;DHT22;34136;51.022;7.082;2023-12-22T06:57:06;7.70;1.00
48328;DHT22;34136;51.022;7.082;2023-12-22T06:59:52;7.70;1.00
48328;DHT22;34136;51.022;7.082;2023-12-22T07:02:39;7.70;1.00
48328;DHT22;34136;51.022;7.082;2023-12-22T07:05:32;7.70;1.00
48328;DHT22;34136;51.022;7.082;2023-12-22T07:08:19;7.70;1.00
48328;DHT22;34136;51.022;7.082;2023-12-22T07:11:05;7.70;1.00
48328;DHT22;34136;51.022;7.082;2023-12-22T07:13:52;7.70;1.00
48328;DHT22;34136;51.022;7.082;2023-12-22T07:16:38;7.70;1.00
48328;DHT22;34136;51.022;7.082;2023-12-22T07:19:24;7.70;1.00
48328;DHT22;34136;51.022;7.082;2023-12-22T07:22:11;7.60;1.00
48328;DHT22;34136;51.022;7.082;2023-12-22T07:24:57;7.60;1.00
48328;DHT22;34136;51.022;7.082;2023-12-22T07:27:43;7.50;1.00
48328;DHT22;34136;51.022;7.082;2023-12-22T07:30:29;7.40;1.00
48328;DHT22;34136;51.022;7.082;2023-12-22T07:33:16;7.40;1.00
48328;DHT22;34136;51.022;7.082;2023-12-22T07:36:02;7.30;1.00
48328;DHT22;34136;51.022;7.082;2023-12-22T07:38:48;7.30;1.00
48328;DHT22;34136;51.022;7.082;2023-12-22T07:41:35;7.30;1.00
48328;DHT22;34136;51.022;7.082;2023-12-22T07:44:21;7.20;1.00
48328;DHT22;34136;51.022;7.082;2023-12-22T07:47:09;7.10;1.00
48328;DHT22;34136;51.022;7.082;2023-12-22T07:49:56;7.00;1.00
48328;DHT22;34136;51.022;7.082;2023-12-22T07:52:42;6.90;1.00
48328;DHT22;34136;51.022;7.082;2023-12-22T07:55:28;6.90;1.00
48328;DHT22;34136;51.022;7.082;2023-12-22T07:58:15;6.90;1.00
48328;DHT22;34136;51.022;7.082;2023-12-22T08:01:01;6.90;1.00
48328;DHT22;34136;51.022;7.082;2023-12-22T08:03:47;6.80;1.00
48328;DHT22;34136;51.022;7.082;2023-12-22T08:06:36;6.80;1.00
48328;DHT22;34136;51.022;7.082;2023-12-22T08:09:23;6.80;1.00
48328;DHT22;34136;51.022;7.082;2023-12-22T08:12:37;6.80;1.00
48328;DHT22;34136;51.022;7.082;2023-12-22T08:15:24;6.90;1.00
48328;DHT22;34136;51.022;7.082;2023-12-22T08:18:10;7.00;1.00
48328;DHT22;34136;51.022;7.082;2023-12-22T08:20:59;7.10;1.00
48328;DHT22;34136;51.022;7.082;2023-12-22T08:23:51;7.20;1.00
48328;DHT22;34136;51.022;7.082;2023-12-22T08:26:37;7.20;1.00
48328;DHT22;34136;51.022;7.082;2023-12-22T08:29:29;7.20;1.00
48328;DHT22;34136;51.022;7.082;2023-12-22T08:32:15;7.20;1.00
48328;DHT22;34136;51.022;7.082;2023-12-22T08:35:04;7.30;1.00
48328;DHT22;34136;51.022;7.082;2023-12-22T08:37:51;7.30;1.00
48328;DHT22;34136;51.022;7.082;2023-12-22T08:40:37;7.40;1.00
48328;DHT22;34136;51.022;7.082;2023-12-22T08:43:23;7.40;1.00
48328;DHT22;34136;51.022;7.082;2023-12-22T08:46:19;7.40;1.00
48328;DHT22;34136;51.022;7.082;2023-12-22T08:49:08;7.50;1.00
48328;DHT22;34136;51.022;7.082;2023-12-22T08:51:54;7.60;1.00
48328;DHT22;34136;51.022;7.082;2023-12-22T08:54:44;7.60;1.00
48328;DHT22;34136;51.022;7.082;2023-12-22T08:57:55;7.70;1.00
48328;DHT22;34136;51.022;7.082;2023-12-22T09:00:43;7.70;1.00
48328;DHT22;34136;51.022;7.082;2023-12-22T09:03:33;7.80;1.00
48328;DHT22;34136;51.022;7.082;2023-12-22T09:06:23;7.80;1.00
48328;DHT22;34136;51.022;7.082;2023-12-22T09:09:14;7.80;1.00
48328;DHT22;34136;51.022;7.082;2023-12-22T09:12:01;7.80;1.00
48328;DHT22;34136;51.022;7.082;2023-12-22T09:14:57;7.90;1.00
48328;DHT22;34136;51.022;7.082;2023-12-22T09:17:43;7.90;1.00
48328;DHT22;34136;51.022;7.082;2023-12-22T09:20:54;8.00;1.00
48328;DHT22;34136;51.022;7.082;2023-12-22T09:23:45;8.10;1.00
48328;DHT22;34136;51.022;7.082;2023-12-22T09:26:31;8.10;1.00
48328;DHT22;34136;51.022;7.082;2023-12-22T09:29:24;8.10;1.00
48328;DHT22;34136;51.022;7.082;2023-12-22T09:32:53;8.10;1.00
48328;DHT22;34136;51.022;7.082;2023-12-22T09:35:40;8.20;1.00
48328;DHT22;34136;51.022;7.082;2023-12-22T09:38:26;8.20;1.00
48328;DHT22;34136;51.022;7.082;2023-12-22T09:41:21;8.20;1.00
48328;DHT22;34136;51.022;7.082;2023-12-22T09:44:30;8.20;1.00
48328;DHT22;34136;51.022;7.082;2023-12-22T09:47:18;8.20;1.00
48328;DHT22;34136;51.022;7.082;2023-12-22T09:50:06;8.30;1.00
48328;DHT22;34136;51.022;7.082;2023-12-22T09:52:53;8.30;1.00
48328;DHT22;34136;51.022;7.082;2023-12-22T09:55:45;8.30;1.00
48328;DHT22;34136;51.022;7.082;2023-12-22T09:58:41;8.40;1.00
48328;DHT22;34136;51.022;7.082;2023-12-22T10:01:32;8.40;1.00
48328;DHT22;34136;51.022;7.082;2023-12-22T10:04:20;8.40;1.00
48328;DHT22;34136;51.022;7.082;2023-12-22T10:07:13;8.50;1.00
48328;DHT22;34136;51.022;7.082;2023-12-22T10:10:00;8.50;1.00
48328;DHT22;34136;51.022;7.082;2023-12-22T10:12:47;8.60;1.00
48328;DHT22;34136;51.022;7.082;2023-12-22T10:15:41;8.60;1.00
48328;DHT22;34136;51.022;7.082;2023-12-22T10:19:14;8.60;1.00
48328;DHT22;34136;51.022;7.082;2023-12-22T10:22:21;8.70;1.00
48328;DHT22;34136;51.022;7.082;2023-12-22T10:25:24;8.60;1.00
48328;DHT22;34136;51.022;7.082;2023-12-22T10:28:37;8.70;1.00
48328;DHT22;34136;51.022;7.082;2023-12-22T10:31:40;8.70;1.00
48328;DHT22;34136;51.022;7.082;2023-12-22T10:34:27;8.70;1.00
48328;DHT22;34136;51.022;7.082;2023-12-22T10:37:13;8.70;1.00
48328;DHT22;34136;51.022;7.082;2023-12-22T10:39:59;8.70;1.00
48328;DHT22;34136;51.022;7.082;2023-12-22T10:42:46;8.80;1.00
48328;DHT22;34136;51.022;7.082;2023-12-22T10:45:32;8.80;1.00
48328;DHT22;34136;51.022;7.082;2023-12-22T10:48:22;8.80;1.00
48328;DHT22;34136;51.022;7.082;2023-12-22T10:51:17;8.80;1.00
48328;DHT22;34136;51.022;7.082;2023-12-22T10:54:26;8.80;1.00
48328;DHT22;34136;51.022;7.082;2023-12-22T10:57:13;8.70;1.00
48328;DHT22;34136;51.022;7.082;2023-12-22T11:00:04;8.70;1.00
48328;DHT22;34136;51.022;7.082;2023-12-22T11:03:01;8.70;1.00
48328;DHT22;34136;51.022;7.082;2023-12-22T11:05:48;8.70;1.00
48328;DHT22;34136;51.022;7.082;2023-12-22T11:08:36;8.70;1.00
48328;DHT22;34136;51.022;7.082;2023-12-22T11:11:39;8.80;1.00
48328;DHT22;34136;51.022;7.082;2023-12-22T11:14:32;8.80;1.00
48328;DHT22;34136;51.022;7.082;2023-12-22T11:20:54;8.80;1.00
48328;DHT22;34136;51.022;7.082;2023-12-22T11:23:41;8.80;1.00
48328;DHT22;34136;51.022;7.082;2023-12-22T11:26:38;8.90;1.00
48328;DHT22;34136;51.022;7.082;2023-12-22T11:29:27;8.90;1.00
48328;DHT22;34136;51.022;7.082;2023-12-22T11:32:21;8.90;1.00
48328;DHT22;34136;51.022;7.082;2023-12-22T11:35:07;9.00;1.00
48328;DHT22;34136;51.022;7.082;2023-12-22T11:38:10;9.00;1.00
48328;DHT22;34136;51.022;7.082;2023-12-22T11:40:58;9.00;1.00
48328;DHT22;34136;51.022;7.082;2023-12-22T11:43:55;9.00;1.00
48328;DHT22;34136;51.022;7.082;2023-12-22T11:47:03;9.10;1.00
48328;DHT22;34136;51.022;7.082;2023-12-22T11:49:50;9.10;1.00
48328;DHT22;34136;51.022;7.082;2023-12-22T11:52:36;9.20;1.00
48328;DHT22;34136;51.022;7.082;2023-12-22T11:58:52;9.20;1.00
48328;DHT22;34136;51.022;7.082;2023-12-22T12:01:45;9.30;1.00
48328;DHT22;34136;51.022;7.082;2023-12-22T12:04:40;9.30;1.00
48328;DHT22;34136;51.022;7.082;2023-12-22T12:07:50;9.30;1.00
48328;DHT22;34136;51.022;7.082;2023-12-22T12:11:01;9.30;1.00
48328;DHT22;34136;51.022;7.082;2023-12-22T12:14:08;9.30;1.00
48328;DHT22;34136;51.022;7.082;2023-12-22T12:17:10;9.40;1.00
48328;DHT22;34136;51.022;7.082;2023-12-22T12:19:58;9.40;1.00
48328;DHT22;34136;51.022;7.082;2023-12-22T12:26:08;9.50;1.00
48328;DHT22;34136;51.022;7.082;2023-12-22T12:29:07;9.50;1.00
48328;DHT22;34136;51.022;7.082;2023-12-22T12:32:02;9.50;1.00
48328;DHT22;34136;51.022;7.082;2023-12-22T12:34:53;9.50;1.00
48328;DHT22;34136;51.022;7.082;2023-12-22T12:37:40;9.50;1.00
48328;DHT22;34136;51.022;7.082;2023-12-22T12:40:32;9.60;1.00
48328;DHT22;34136;51.022;7.082;2023-12-22T12:44:03;9.60;1.00
48328;DHT22;34136;51.022;7.082;2023-12-22T12:46:57;9.70;1.00
48328;DHT22;34136;51.022;7.082;2023-12-22T12:49:46;9.70;1.00
48328;DHT22;34136;51.022;7.082;2023-12-22T12:52:34;9.80;1.00
48328;DHT22;34136;51.022;7.082;2023-12-22T12:55:25;9.80;1.00
48328;DHT22;34136;51.022;7.082;2023-12-22T12:59:00;9.90;1.00
48328;DHT22;34136;51.022;7.082;2023-12-22T13:01:55;9.90;1.00
48328;DHT22;34136;51.022;7.082;2023-12-22T13:04:41;10.00;1.00
48328;DHT22;34136;51.022;7.082;2023-12-22T13:07:31;10.00;1.00
48328;DHT22;34136;51.022;7.082;2023-12-22T13:10:24;10.00;1.00
48328;DHT22;34136;51.022;7.082;2023-12-22T13:14:00;10.00;1.00
48328;DHT22;34136;51.022;7.082;2023-12-22T13:16:50;9.90;1.00
48328;DHT22;34136;51.022;7.082;2023-12-22T13:20:08;9.80;1.00
48328;DHT22;34136;51.022;7.082;2023-12-22T13:22:55;9.80;1.00
48328;DHT22;34136;51.022;7.082;2023-12-22T13:25:47;9.70;1.00
48328;DHT22;34136;51.022;7.082;2023-12-22T13:28:40;9.70;1.00
48328;DHT22;34136;51.022;7.082;2023-12-22T13:32:02;9.80;1.00
48328;DHT22;34136;51.022;7.082;2023-12-22T13:35:23;9.70;1.00
48328;DHT22;34136;51.022;7.082;2023-12-22T13:38:15;9.70;1.00
48328;DHT22;34136;51.022;7.082;2023-12-22T13:41:19;9.60;1.00
48328;DHT22;34136;51.022;7.082;2023-12-22T13:44:09;9.50;1.00
48328;DHT22;34136;51.022;7.082;2023-12-22T13:46:55;9.50;1.00
48328;DHT22;34136;51.022;7.082;2023-12-22T13:49:48;9.50;1.00
48328;DHT22;34136;51.022;7.082;2023-12-22T13:53:11;9.50;1.00
48328;DHT22;34136;51.022;7.082;2023-12-22T13:55:58;9.60;1.00
48328;DHT22;34136;51.022;7.082;2023-12-22T13:58:48;9.60;1.00
48328;DHT22;34136;51.022;7.082;2023-12-22T14:01:45;9.70;1.00
48328;DHT22;34136;51.022;7.082;2023-12-22T14:04:47;9.70;1.00
48328;DHT22;34136;51.022;7.082;2023-12-22T14:07:55;9.70;1.00
48328;DHT22;34136;51.022;7.082;2023-12-22T14:10:50;9.70;1.00
48328;DHT22;34136;51.022;7.082;2023-12-22T14:13:54;9.80;1.00
48328;DHT22;34136;51.022;7.082;2023-12-22T14:16:57;9.70;1.00
48328;DHT22;34136;51.022;7.082;2023-12-22T14:19:49;9.80;1.00
48328;DHT22;34136;51.022;7.082;2023-12-22T14:22:36;9.80;1.00
48328;DHT22;34136;51.022;7.082;2023-12-22T14:25:28;9.70;1.00
48328;DHT22;34136;51.022;7.082;2023-12-22T14:28:21;9.70;1.00
48328;DHT22;34136;51.022;7.082;2023-12-22T14:31:16;9.70;1.00
48328;DHT22;34136;51.022;7.082;2023-12-22T14:34:35;9.60;1.00
48328;DHT22;34136;51.022;7.082;2023-12-22T14:37:22;9.60;1.00
48328;DHT22;34136;51.022;7.082;2023-12-22T14:40:09;9.60;1.00
48328;DHT22;34136;51.022;7.082;2023-12-22T14:43:23;9.50;1.00
48328;DHT22;34136;51.022;7.082;2023-12-22T14:46:09;9.50;1.00
48328;DHT22;34136;51.022;7.082;2023-12-22T14:49:01;9.40;1.00
48328;DHT22;34136;51.022;7.082;2023-12-22T14:51:47;9.40;1.00
48328;DHT22;34136;51.022;7.082;2023-12-22T14:54:39;9.40;1.00
48328;DHT22;34136;51.022;7.082;2023-12-22T14:57:31;9.40;1.00
48328;DHT22;34136;51.022;7.082;2023-12-22T15:00:20;9.40;1.00
48328;DHT22;34136;51.022;7.082;2023-12-22T15:03:10;9.40;1.00
48328;DHT22;34136;51.022;7.082;2023-12-22T15:06:09;9.40;1.00
48328;DHT22;34136;51.022;7.082;2023-12-22T15:08:55;9.40;1.00
48328;DHT22;34136;51.022;7.082;2023-12-22T15:11:42;9.40;1.00
48328;DHT22;34136;51.022;7.082;2023-12-22T15:15:25;9.40;1.00
48328;DHT22;34136;51.022;7.082;2023-12-22T15:18:27;9.50;1.00
48328;DHT22;34136;51.022;7.082;2023-12-22T15:21:21;9.50;1.00
48328;DHT22;34136;51.022;7.082;2023-12-22T15:24:48;9.50;1.00
48328;DHT22;34136;51.022;7.082;2023-12-22T15:27:49;9.40;1.00
48328;DHT22;34136;51.022;7.082;2023-12-22T15:30:36;9.40;1.00
48328;DHT22;34136;51.022;7.082;2023-12-22T15:33:25;9.40;1.00
48328;DHT22;34136;51.022;7.082;2023-12-22T15:36:33;9.30;1.00
48328;DHT22;34136;51.022;7.082;2023-12-22T15:39:20;9.30;1.00
48328;DHT22;34136;51.022;7.082;2023-12-22T15:42:36;9.30;1.00
48328;DHT22;34136;51.022;7.082;2023-12-22T15:45:22;9.30;1.00
48328;DHT22;34136;51.022;7.082;2023-12-22T15:48:09;9.40;1.00
48328;DHT22;34136;51.022;7.082;2023-12-22T15:50:55;9.40;1.00
48328;DHT22;34136;51.022;7.082;2023-12-22T15:53:41;9.40;1.00
48328;DHT22;34136;51.022;7.082;2023-12-22T15:56:27;9.40;1.00
48328;DHT22;34136;51.022;7.082;2023-12-22T15:59:14;9.40;1.00
48328;DHT22;34136;51.022;7.082;2023-12-22T16:02:00;9.40;1.00
48328;DHT22;34136;51.022;7.082;2023-12-22T16:04:46;9.50;1.00
48328;DHT22;34136;51.022;7.082;2023-12-22T16:07:41;9.50;1.00
48328;DHT22;34136;51.022;7.082;2023-12-22T16:10:28;9.50;1.00
48328;DHT22;34136;51.022;7.082;2023-12-22T16:16:57;9.50;1.00
48328;DHT22;34136;51.022;7.082;2023-12-22T16:28:35;9.40;1.00
48328;DHT22;34136;51.022;7.082;2023-12-22T16:32:12;9.40;1.00
48328;DHT22;34136;51.022;7.082;2023-12-22T16:47:00;9.50;1.00
48328;DHT22;34136;51.022;7.082;2023-12-22T16:50:37;9.40;1.00
48328;DHT22;34136;51.022;7.082;2023-12-22T17:06:04;9.40;1.00
48328;DHT22;34136;51.022;7.082;2023-12-22T17:08:50;9.50;1.00
48328;DHT22;34136;51.022;7.082;2023-12-22T17:11:35;9.50;1.00
48328;DHT22;34136;51.022;7.082;2023-12-22T17:14:22;9.50;1.00
48328;DHT22;34136;51.022;7.082;2023-12-22T17:17:08;9.60;1.00
48328;DHT22;34136;51.022;7.082;2023-12-22T17:20:00;9.60;1.00
48328;DHT22;34136;51.022;7.082;2023-12-22T17:22:46;9.60;1.00
48328;DHT22;34136;51.022;7.082;2023-12-22T17:25:45;9.60;1.00
48328;DHT22;34136;51.022;7.082;2023-12-22T17:28:32;9.70;1.00
48328;DHT22;34136;51.022;7.082;2023-12-22T17:31:30;9.70;1.00
48328;DHT22;34136;51.022;7.082;2023-12-22T17:34:17;9.70;1.00
48328;DHT22;34136;51.022;7.082;2023-12-22T17:37:03;9.70;1.00
48328;DHT22;34136;51.022;7.082;2023-12-22T17:39:49;9.70;1.00
48328;DHT22;34136;51.022;7.082;2023-12-22T17:42:36;9.70;1.00
48328;DHT22;34136;51.022;7.082;2023-12-22T17:45:25;9.70;1.00
48328;DHT22;34136;51.022;7.082;2023-12-22T17:48:11;9.80;1.00
48328;DHT22;34136;51.022;7.082;2023-12-22T17:50:58;9.70;1.00
48328;DHT22;34136;51.022;7.082;2023-12-22T17:53:45;9.70;1.00
48328;DHT22;34136;51.022;7.082;2023-12-22T17:56:34;9.70;1.00
48328;DHT22;34136;51.022;7.082;2023-12-22T17:59:35;9.70;1.00
48328;DHT22;34136;51.022;7.082;2023-12-22T18:02:51;9.70;1.00
48328;DHT22;34136;51.022;7.082;2023-12-22T18:05:43;9.70;1.00
48328;DHT22;34136;51.022;7.082;2023-12-22T18:08:29;9.70;1.00
48328;DHT22;34136;51.022;7.082;2023-12-22T18:11:15;9.70;1.00
48328;DHT22;34136;51.022;7.082;2023-12-22T18:14:01;9.80;1.00
48328;DHT22;34136;51.022;7.082;2023-12-22T18:16:48;9.80;1.00
48328;DHT22;34136;51.022;7.082;2023-12-22T18:19:34;9.80;1.00
48328;DHT22;34136;51.022;7.082;2023-12-22T18:22:20;9.80;1.00
48328;DHT22;34136;51.022;7.082;2023-12-22T18:25:06;9.80;1.00
48328;DHT22;34136;51.022;7.082;2023-12-22T18:27:53;9.90;1.00
48328;DHT22;34136;51.022;7.082;2023-12-22T18:30:39;9.90;1.00
48328;DHT22;34136;51.022;7.082;2023-12-22T18:33:25;9.90;1.00
48328;DHT22;34136;51.022;7.082;2023-12-22T18:36:12;9.90;1.00
48328;DHT22;34136;51.022;7.082;2023-12-22T18:38:58;9.90;1.00
48328;DHT22;34136;51.022;7.082;2023-12-22T18:41:53;10.00;1.00
48328;DHT22;34136;51.022;7.082;2023-12-22T18:44:45;9.90;1.00
48328;DHT22;34136;51.022;7.082;2023-12-22T18:47:31;9.90;1.00
48328;DHT22;34136;51.022;7.082;2023-12-22T18:50:17;10.00;1.00
48328;DHT22;34136;51.022;7.082;2023-12-22T18:53:04;9.90;1.00
48328;DHT22;34136;51.022;7.082;2023-12-22T18:55:50;9.90;1.00
48328;DHT22;34136;51.022;7.082;2023-12-22T18:58:36;9.90;1.00
48328;DHT22;34136;51.022;7.082;2023-12-22T19:01:22;9.90;1.00
48328;DHT22;34136;51.022;7.082;2023-12-22T19:04:08;9.90;1.00
48328;DHT22;34136;51.022;7.082;2023-12-22T19:07:01;9.80;1.00
48328;DHT22;34136;51.022;7.082;2023-12-22T20:53:02;8.60;1.00
48328;DHT22;34136;51.022;7.082;2023-12-22T22:38:44;7.80;1.00
48328;DHT22;34136;51.022;7.082;2023-12-22T22:41:34;7.80;1.00
48328;DHT22;34136;51.022;7.082;2023-12-22T22:44:22;7.80;1.00
48328;DHT22;34136;51.022;7.082;2023-12-22T22:47:08;7.80;1.00
48328;DHT22;34136;51.022;7.082;2023-12-22T22:49:54;7.70;1.00
48328;DHT22;34136;51.022;7.082;2023-12-22T22:52:41;7.70;1.00
48328;DHT22;34136;51.022;7.082;2023-12-22T22:55:27;7.70;1.00
48328;DHT22;34136;51.022;7.082;2023-12-22T22:58:48;7.80;1.00
48328;DHT22;34136;51.022;7.082;2023-12-22T23:01:34;7.80;1.00
48328;DHT22;34136;51.022;7.082;2023-12-22T23:04:26;7.70;1.00
48328;DHT22;34136;51.022;7.082;2023-12-22T23:07:13;7.80;1.00
48328;DHT22;34136;51.022;7.082;2023-12-22T23:09:59;7.70;1.00
48328;DHT22;34136;51.022;7.082;2023-12-22T23:12:46;7.70;1.00
48328;DHT22;34136;51.022;7.082;2023-12-22T23:15:32;7.80;1.00
48328;DHT22;34136;51.022;7.082;2023-12-22T23:18:18;7.70;1.00
48328;DHT22;34136;51.022;7.082;2023-12-22T23:21:05;7.80;1.00
48328;DHT22;34136;51.022;7.082;2023-12-22T23:24:04;7.80;1.00
48328;DHT22;34136;51.022;7.082;2023-12-22T23:26:51;7.80;1.00
48328;DHT22;34136;51.022;7.082;2023-12-22T23:29:37;7.70;1.00
48328;DHT22;34136;51.022;7.082;2023-12-22T23:32:23;7.80;1.00
48328;DHT22;34136;51.022;7.082;2023-12-22T23:35:09;7.80;1.00
48328;DHT22;34136;51.022;7.082;2023-12-22T23:37:55;7.80;1.00
48328;DHT22;34136;51.022;7.082;2023-12-22T23:40:42;7.80;1.00
48328;DHT22;34136;51.022;7.082;2023-12-22T23:43:31;7.80;1.00
48328;DHT22;34136;51.022;7.082;2023-12-22T23:46:20;7.80;1.00
48328;DHT22;34136;51.022;7.082;2023-12-22T23:49:07;7.80;1.00
48328;DHT22;34136;51.022;7.082;2023-12-22T23:51:52;7.80;1.00
48328;DHT22;34136;51.022;7.082;2023-12-22T23:54:38;7.90;1.00
48328;DHT22;34136;51.022;7.082;2023-12-22T23:57:30;7.80;1.00
